sensor_id;sensor_type;location;lat;lon;timestamp;P1;durP1;ratioP1;P2;durP2;ratioP2
76256;SDS011;65074;50.436;8.672;2023-06-14T00:00:20;6.53;;;3.80;;
76256;SDS011;65074;50.436;8.672;2023-06-14T00:02:46;6.18;;;4.22;;
76256;SDS011;65074;50.436;8.672;2023-06-14T00:05:11;5.85;;;3.83;;
76256;SDS011;65074;50.436;8.672;2023-06-14T00:07:40;4.72;;;3.78;;
76256;SDS011;65074;50.436;8.672;2023-06-14T00:10:09;5.55;;;3.88;;
76256;SDS011;65074;50.436;8.672;2023-06-14T00:12:34;5.72;;;4.40;;
76256;SDS011;65074;50.436;8.672;2023-06-14T00:15:00;6.57;;;4.28;;
76256;SDS011;65074;50.436;8.672;2023-06-14T00:17:28;4.93;;;3.72;;
76256;SDS011;65074;50.436;8.672;2023-06-14T00:19:57;5.50;;;3.92;;
76256;SDS011;65074;50.436;8.672;2023-06-14T00:22:23;6.45;;;3.83;;
76256;SDS011;65074;50.436;8.672;2023-06-14T00:24:51;4.13;;;3.30;;
76256;SDS011;65074;50.436;8.672;2023-06-14T00:27:17;4.82;;;3.45;;
76256;SDS011;65074;50.436;8.672;2023-06-14T00:29:43;5.82;;;3.53;;
76256;SDS011;65074;50.436;8.672;2023-06-14T00:32:08;4.97;;;3.72;;
76256;SDS011;65074;50.436;8.672;2023-06-14T00:34:33;5.25;;;4.13;;
76256;SDS011;65074;50.436;8.672;2023-06-14T00:36:59;5.95;;;3.90;;
76256;SDS011;65074;50.436;8.672;2023-06-14T00:39:25;5.60;;;3.55;;
76256;SDS011;65074;50.436;8.672;2023-06-14T00:41:50;8.73;;;4.13;;
76256;SDS011;65074;50.436;8.672;2023-06-14T00:44:16;5.20;;;4.00;;
76256;SDS011;65074;50.436;8.672;2023-06-14T00:46:41;5.85;;;4.38;;
76256;SDS011;65074;50.436;8.672;2023-06-14T00:49:07;4.72;;;4.30;;
76256;SDS011;65074;50.436;8.672;2023-06-14T00:51:33;5.40;;;4.03;;
76256;SDS011;65074;50.436;8.672;2023-06-14T00:53:58;7.05;;;3.85;;
76256;SDS011;65074;50.436;8.672;2023-06-14T00:56:24;6.90;;;4.10;;
76256;SDS011;65074;50.436;8.672;2023-06-14T00:58:50;6.90;;;4.60;;
76256;SDS011;65074;50.436;8.672;2023-06-14T01:01:16;6.78;;;4.65;;
76256;SDS011;65074;50.436;8.672;2023-06-14T01:03:41;6.07;;;4.40;;
76256;SDS011;65074;50.436;8.672;2023-06-14T01:09:03;10.10;;;4.32;;
76256;SDS011;65074;50.436;8.672;2023-06-14T01:11:33;5.45;;;4.00;;
76256;SDS011;65074;50.436;8.672;2023-06-14T01:14:04;5.50;;;3.80;;
76256;SDS011;65074;50.436;8.672;2023-06-14T01:16:30;4.82;;;4.30;;
76256;SDS011;65074;50.436;8.672;2023-06-14T01:18:57;4.50;;;4.05;;
76256;SDS011;65074;50.436;8.672;2023-06-14T01:21:23;4.68;;;3.67;;
76256;SDS011;65074;50.436;8.672;2023-06-14T01:23:49;5.43;;;3.97;;
76256;SDS011;65074;50.436;8.672;2023-06-14T01:26:18;5.63;;;4.05;;
76256;SDS011;65074;50.436;8.672;2023-06-14T01:28:44;5.88;;;4.00;;
76256;SDS011;65074;50.436;8.672;2023-06-14T01:31:16;5.72;;;3.97;;
76256;SDS011;65074;50.436;8.672;2023-06-14T01:33:42;5.93;;;3.92;;
76256;SDS011;65074;50.436;8.672;2023-06-14T01:36:08;5.03;;;3.92;;
76256;SDS011;65074;50.436;8.672;2023-06-14T01:38:34;5.25;;;3.92;;
76256;SDS011;65074;50.436;8.672;2023-06-14T01:40:59;5.00;;;3.92;;
76256;SDS011;65074;50.436;8.672;2023-06-14T01:43:26;4.18;;;3.42;;
76256;SDS011;65074;50.436;8.672;2023-06-14T01:45:53;5.18;;;4.20;;
76256;SDS011;65074;50.436;8.672;2023-06-14T01:48:19;6.15;;;3.88;;
76256;SDS011;65074;50.436;8.672;2023-06-14T01:50:45;6.85;;;3.85;;
76256;SDS011;65074;50.436;8.672;2023-06-14T01:53:10;4.07;;;3.42;;
76256;SDS011;65074;50.436;8.672;2023-06-14T01:55:38;5.65;;;3.85;;
76256;SDS011;65074;50.436;8.672;2023-06-14T01:58:08;4.93;;;3.95;;
76256;SDS011;65074;50.436;8.672;2023-06-14T02:00:33;4.60;;;4.13;;
76256;SDS011;65074;50.436;8.672;2023-06-14T02:02:59;5.65;;;3.80;;
76256;SDS011;65074;50.436;8.672;2023-06-14T02:05:25;7.35;;;4.10;;
76256;SDS011;65074;50.436;8.672;2023-06-14T02:07:51;6.03;;;4.05;;
76256;SDS011;65074;50.436;8.672;2023-06-14T02:10:17;4.57;;;3.45;;
76256;SDS011;65074;50.436;8.672;2023-06-14T02:12:43;5.88;;;3.80;;
76256;SDS011;65074;50.436;8.672;2023-06-14T02:15:08;4.60;;;3.80;;
76256;SDS011;65074;50.436;8.672;2023-06-14T02:17:34;4.55;;;3.70;;
76256;SDS011;65074;50.436;8.672;2023-06-14T02:20:03;8.80;;;3.65;;
76256;SDS011;65074;50.436;8.672;2023-06-14T02:22:30;5.43;;;3.88;;
76256;SDS011;65074;50.436;8.672;2023-06-14T02:24:55;4.87;;;3.80;;
76256;SDS011;65074;50.436;8.672;2023-06-14T02:27:20;7.00;;;4.30;;
76256;SDS011;65074;50.436;8.672;2023-06-14T02:29:45;5.63;;;3.97;;
76256;SDS011;65074;50.436;8.672;2023-06-14T02:32:11;4.18;;;3.67;;
76256;SDS011;65074;50.436;8.672;2023-06-14T02:34:37;6.57;;;4.05;;
76256;SDS011;65074;50.436;8.672;2023-06-14T02:37:06;6.78;;;4.10;;
76256;SDS011;65074;50.436;8.672;2023-06-14T02:39:31;6.68;;;4.38;;
76256;SDS011;65074;50.436;8.672;2023-06-14T02:41:56;6.67;;;3.80;;
76256;SDS011;65074;50.436;8.672;2023-06-14T02:44:25;4.77;;;3.60;;
76256;SDS011;65074;50.436;8.672;2023-06-14T02:46:54;5.25;;;3.70;;
76256;SDS011;65074;50.436;8.672;2023-06-14T02:49:21;5.95;;;4.13;;
76256;SDS011;65074;50.436;8.672;2023-06-14T02:51:46;5.97;;;3.90;;
76256;SDS011;65074;50.436;8.672;2023-06-14T02:54:11;6.13;;;3.67;;
76256;SDS011;65074;50.436;8.672;2023-06-14T02:56:38;5.30;;;3.20;;
76256;SDS011;65074;50.436;8.672;2023-06-14T02:59:04;5.55;;;4.13;;
76256;SDS011;65074;50.436;8.672;2023-06-14T03:01:30;6.22;;;3.45;;
76256;SDS011;65074;50.436;8.672;2023-06-14T03:06:24;5.00;;;3.50;;
76256;SDS011;65074;50.436;8.672;2023-06-14T03:08:51;4.93;;;3.55;;
76256;SDS011;65074;50.436;8.672;2023-06-14T03:11:20;4.63;;;3.28;;
76256;SDS011;65074;50.436;8.672;2023-06-14T03:13:47;5.95;;;3.80;;
76256;SDS011;65074;50.436;8.672;2023-06-14T03:16:12;5.45;;;3.63;;
76256;SDS011;65074;50.436;8.672;2023-06-14T03:18:39;5.75;;;3.63;;
76256;SDS011;65074;50.436;8.672;2023-06-14T03:21:05;5.57;;;3.45;;
76256;SDS011;65074;50.436;8.672;2023-06-14T03:23:32;9.95;;;3.90;;
76256;SDS011;65074;50.436;8.672;2023-06-14T03:25:57;5.10;;;3.72;;
76256;SDS011;65074;50.436;8.672;2023-06-14T03:28:23;4.88;;;3.55;;
76256;SDS011;65074;50.436;8.672;2023-06-14T03:30:50;6.15;;;3.85;;
76256;SDS011;65074;50.436;8.672;2023-06-14T03:33:15;4.68;;;3.33;;
76256;SDS011;65074;50.436;8.672;2023-06-14T03:35:41;4.03;;;3.20;;
76256;SDS011;65074;50.436;8.672;2023-06-14T03:38:07;6.00;;;3.40;;
76256;SDS011;65074;50.436;8.672;2023-06-14T03:40:32;4.78;;;3.35;;
76256;SDS011;65074;50.436;8.672;2023-06-14T03:43:03;4.15;;;3.10;;
76256;SDS011;65074;50.436;8.672;2023-06-14T03:45:28;8.10;;;3.40;;
76256;SDS011;65074;50.436;8.672;2023-06-14T03:47:55;5.32;;;3.40;;
76256;SDS011;65074;50.436;8.672;2023-06-14T03:50:21;5.88;;;3.40;;
76256;SDS011;65074;50.436;8.672;2023-06-14T03:52:48;5.10;;;3.60;;
76256;SDS011;65074;50.436;8.672;2023-06-14T03:55:14;5.03;;;3.35;;
76256;SDS011;65074;50.436;8.672;2023-06-14T03:57:41;4.80;;;3.80;;
76256;SDS011;65074;50.436;8.672;2023-06-14T04:00:10;5.57;;;3.80;;
76256;SDS011;65074;50.436;8.672;2023-06-14T04:05:08;5.25;;;3.08;;
76256;SDS011;65074;50.436;8.672;2023-06-14T04:07:38;4.03;;;3.30;;
76256;SDS011;65074;50.436;8.672;2023-06-14T04:10:05;4.75;;;3.20;;
76256;SDS011;65074;50.436;8.672;2023-06-14T04:12:30;5.68;;;3.60;;
76256;SDS011;65074;50.436;8.672;2023-06-14T04:14:58;6.07;;;3.80;;
76256;SDS011;65074;50.436;8.672;2023-06-14T04:17:23;6.65;;;3.55;;
76256;SDS011;65074;50.436;8.672;2023-06-14T04:19:49;5.53;;;3.50;;
76256;SDS011;65074;50.436;8.672;2023-06-14T04:22:14;3.67;;;2.93;;
76256;SDS011;65074;50.436;8.672;2023-06-14T04:24:39;5.23;;;3.37;;
76256;SDS011;65074;50.436;8.672;2023-06-14T04:27:07;4.47;;;2.83;;
76256;SDS011;65074;50.436;8.672;2023-06-14T04:29:34;5.05;;;3.10;;
76256;SDS011;65074;50.436;8.672;2023-06-14T04:32:04;5.03;;;3.72;;
76256;SDS011;65074;50.436;8.672;2023-06-14T04:34:30;4.72;;;3.25;;
76256;SDS011;65074;50.436;8.672;2023-06-14T04:36:59;6.25;;;3.58;;
76256;SDS011;65074;50.436;8.672;2023-06-14T04:39:30;8.43;;;3.65;;
76256;SDS011;65074;50.436;8.672;2023-06-14T04:41:57;4.65;;;3.85;;
76256;SDS011;65074;50.436;8.672;2023-06-14T04:44:26;5.28;;;3.25;;
76256;SDS011;65074;50.436;8.672;2023-06-14T04:46:56;5.50;;;3.55;;
76256;SDS011;65074;50.436;8.672;2023-06-14T04:49:22;5.38;;;3.33;;
76256;SDS011;65074;50.436;8.672;2023-06-14T04:51:48;6.38;;;3.75;;
76256;SDS011;65074;50.436;8.672;2023-06-14T04:54:16;9.82;;;4.07;;
76256;SDS011;65074;50.436;8.672;2023-06-14T04:56:45;7.57;;;3.20;;
76256;SDS011;65074;50.436;8.672;2023-06-14T04:59:11;5.53;;;3.38;;
76256;SDS011;65074;50.436;8.672;2023-06-14T05:01:38;7.60;;;3.35;;
76256;SDS011;65074;50.436;8.672;2023-06-14T05:04:03;6.85;;;3.10;;
76256;SDS011;65074;50.436;8.672;2023-06-14T05:06:29;6.30;;;3.65;;
76256;SDS011;65074;50.436;8.672;2023-06-14T05:08:55;5.65;;;3.50;;
76256;SDS011;65074;50.436;8.672;2023-06-14T05:11:22;5.60;;;3.28;;
76256;SDS011;65074;50.436;8.672;2023-06-14T05:13:49;8.15;;;3.83;;
76256;SDS011;65074;50.436;8.672;2023-06-14T05:16:15;4.68;;;3.03;;
76256;SDS011;65074;50.436;8.672;2023-06-14T05:18:41;8.25;;;3.10;;
76256;SDS011;65074;50.436;8.672;2023-06-14T05:21:07;6.72;;;3.25;;
76256;SDS011;65074;50.436;8.672;2023-06-14T05:23:32;9.53;;;2.73;;
76256;SDS011;65074;50.436;8.672;2023-06-14T05:25:57;5.18;;;3.05;;
76256;SDS011;65074;50.436;8.672;2023-06-14T05:28:23;4.70;;;3.20;;
76256;SDS011;65074;50.436;8.672;2023-06-14T05:30:48;7.65;;;3.22;;
76256;SDS011;65074;50.436;8.672;2023-06-14T05:33:13;4.45;;;3.15;;
76256;SDS011;65074;50.436;8.672;2023-06-14T05:35:39;5.53;;;2.93;;
76256;SDS011;65074;50.436;8.672;2023-06-14T05:38:04;5.20;;;3.30;;
76256;SDS011;65074;50.436;8.672;2023-06-14T05:40:30;6.47;;;3.03;;
76256;SDS011;65074;50.436;8.672;2023-06-14T05:42:56;6.03;;;3.33;;
76256;SDS011;65074;50.436;8.672;2023-06-14T05:45:21;4.13;;;3.17;;
76256;SDS011;65074;50.436;8.672;2023-06-14T05:47:46;5.37;;;2.90;;
76256;SDS011;65074;50.436;8.672;2023-06-14T05:50:11;8.47;;;3.53;;
76256;SDS011;65074;50.436;8.672;2023-06-14T05:52:36;5.27;;;3.00;;
76256;SDS011;65074;50.436;8.672;2023-06-14T05:55:02;4.53;;;3.30;;
76256;SDS011;65074;50.436;8.672;2023-06-14T05:57:28;4.13;;;3.28;;
76256;SDS011;65074;50.436;8.672;2023-06-14T05:59:53;3.63;;;2.83;;
76256;SDS011;65074;50.436;8.672;2023-06-14T06:02:18;3.47;;;3.00;;
76256;SDS011;65074;50.436;8.672;2023-06-14T06:04:44;5.57;;;3.50;;
76256;SDS011;65074;50.436;8.672;2023-06-14T06:07:09;6.37;;;3.73;;
76256;SDS011;65074;50.436;8.672;2023-06-14T06:09:35;4.53;;;3.58;;
76256;SDS011;65074;50.436;8.672;2023-06-14T06:12:00;5.23;;;3.07;;
76256;SDS011;65074;50.436;8.672;2023-06-14T06:14:25;5.00;;;3.20;;
76256;SDS011;65074;50.436;8.672;2023-06-14T06:16:50;4.30;;;3.07;;
76256;SDS011;65074;50.436;8.672;2023-06-14T06:19:17;6.13;;;3.13;;
76256;SDS011;65074;50.436;8.672;2023-06-14T06:21:43;5.85;;;3.20;;
76256;SDS011;65074;50.436;8.672;2023-06-14T06:24:08;9.67;;;3.40;;
76256;SDS011;65074;50.436;8.672;2023-06-14T06:26:33;3.90;;;2.53;;
76256;SDS011;65074;50.436;8.672;2023-06-14T06:28:58;3.23;;;2.23;;
76256;SDS011;65074;50.436;8.672;2023-06-14T06:31:24;4.75;;;2.65;;
76256;SDS011;65074;50.436;8.672;2023-06-14T06:33:50;3.03;;;2.47;;
76256;SDS011;65074;50.436;8.672;2023-06-14T06:36:16;3.90;;;2.87;;
76256;SDS011;65074;50.436;8.672;2023-06-14T06:38:41;5.67;;;2.67;;
76256;SDS011;65074;50.436;8.672;2023-06-14T06:41:06;3.45;;;2.35;;
76256;SDS011;65074;50.436;8.672;2023-06-14T06:43:32;2.87;;;2.20;;
76256;SDS011;65074;50.436;8.672;2023-06-14T06:45:57;4.77;;;2.77;;
76256;SDS011;65074;50.436;8.672;2023-06-14T06:48:22;3.37;;;2.50;;
76256;SDS011;65074;50.436;8.672;2023-06-14T06:50:47;4.37;;;2.37;;
76256;SDS011;65074;50.436;8.672;2023-06-14T06:53:13;3.80;;;2.23;;
76256;SDS011;65074;50.436;8.672;2023-06-14T06:55:38;2.50;;;2.20;;
76256;SDS011;65074;50.436;8.672;2023-06-14T06:58:03;2.53;;;2.33;;
76256;SDS011;65074;50.436;8.672;2023-06-14T07:00:30;5.75;;;2.20;;
76256;SDS011;65074;50.436;8.672;2023-06-14T07:02:55;3.97;;;2.40;;
76256;SDS011;65074;50.436;8.672;2023-06-14T07:05:22;2.60;;;2.00;;
76256;SDS011;65074;50.436;8.672;2023-06-14T07:07:47;2.45;;;2.25;;
76256;SDS011;65074;50.436;8.672;2023-06-14T07:10:12;3.90;;;2.30;;
76256;SDS011;65074;50.436;8.672;2023-06-14T07:12:38;2.53;;;2.15;;
76256;SDS011;65074;50.436;8.672;2023-06-14T07:15:05;3.80;;;2.50;;
76256;SDS011;65074;50.436;8.672;2023-06-14T07:17:31;2.78;;;2.25;;
76256;SDS011;65074;50.436;8.672;2023-06-14T07:19:56;2.73;;;2.33;;
76256;SDS011;65074;50.436;8.672;2023-06-14T07:22:22;3.03;;;2.40;;
76256;SDS011;65074;50.436;8.672;2023-06-14T07:24:47;3.13;;;2.20;;
76256;SDS011;65074;50.436;8.672;2023-06-14T07:27:12;2.30;;;1.97;;
76256;SDS011;65074;50.436;8.672;2023-06-14T07:29:38;3.95;;;2.25;;
76256;SDS011;65074;50.436;8.672;2023-06-14T07:32:03;4.65;;;2.78;;
76256;SDS011;65074;50.436;8.672;2023-06-14T07:34:29;3.70;;;2.10;;
76256;SDS011;65074;50.436;8.672;2023-06-14T07:36:54;2.53;;;1.85;;
76256;SDS011;65074;50.436;8.672;2023-06-14T07:39:19;7.40;;;2.15;;
76256;SDS011;65074;50.436;8.672;2023-06-14T07:41:44;2.85;;;2.00;;
76256;SDS011;65074;50.436;8.672;2023-06-14T07:44:10;2.23;;;1.80;;
76256;SDS011;65074;50.436;8.672;2023-06-14T07:46:35;2.92;;;1.95;;
76256;SDS011;65074;50.436;8.672;2023-06-14T07:49:00;4.95;;;2.40;;
76256;SDS011;65074;50.436;8.672;2023-06-14T07:51:26;6.17;;;2.60;;
76256;SDS011;65074;50.436;8.672;2023-06-14T07:53:51;10.37;;;2.33;;
76256;SDS011;65074;50.436;8.672;2023-06-14T07:56:16;2.43;;;1.83;;
76256;SDS011;65074;50.436;8.672;2023-06-14T07:58:41;2.67;;;1.60;;
76256;SDS011;65074;50.436;8.672;2023-06-14T08:01:07;3.33;;;2.37;;
76256;SDS011;65074;50.436;8.672;2023-06-14T08:03:33;6.28;;;2.45;;
76256;SDS011;65074;50.436;8.672;2023-06-14T08:05:58;2.50;;;1.95;;
76256;SDS011;65074;50.436;8.672;2023-06-14T08:08:23;3.47;;;1.83;;
76256;SDS011;65074;50.436;8.672;2023-06-14T08:10:49;2.47;;;2.03;;
76256;SDS011;65074;50.436;8.672;2023-06-14T08:13:14;3.90;;;1.85;;
76256;SDS011;65074;50.436;8.672;2023-06-14T08:15:39;3.20;;;2.00;;
76256;SDS011;65074;50.436;8.672;2023-06-14T08:18:05;4.40;;;2.13;;
76256;SDS011;65074;50.436;8.672;2023-06-14T08:20:30;1.73;;;1.42;;
76256;SDS011;65074;50.436;8.672;2023-06-14T08:22:56;4.93;;;2.40;;
76256;SDS011;65074;50.436;8.672;2023-06-14T08:25:22;2.97;;;1.65;;
76256;SDS011;65074;50.436;8.672;2023-06-14T08:27:47;2.45;;;2.13;;
76256;SDS011;65074;50.436;8.672;2023-06-14T08:30:13;2.37;;;1.60;;
76256;SDS011;65074;50.436;8.672;2023-06-14T08:32:38;1.83;;;1.73;;
76256;SDS011;65074;50.436;8.672;2023-06-14T08:35:03;3.30;;;1.77;;
76256;SDS011;65074;50.436;8.672;2023-06-14T08:37:30;2.30;;;1.40;;
76256;SDS011;65074;50.436;8.672;2023-06-14T08:39:56;1.75;;;1.50;;
76256;SDS011;65074;50.436;8.672;2023-06-14T08:42:21;5.03;;;1.53;;
76256;SDS011;65074;50.436;8.672;2023-06-14T08:44:49;2.15;;;1.50;;
76256;SDS011;65074;50.436;8.672;2023-06-14T08:47:14;3.90;;;1.90;;
76256;SDS011;65074;50.436;8.672;2023-06-14T08:49:40;3.75;;;1.70;;
76256;SDS011;65074;50.436;8.672;2023-06-14T08:52:10;4.75;;;2.03;;
76256;SDS011;65074;50.436;8.672;2023-06-14T08:54:35;1.80;;;1.65;;
76256;SDS011;65074;50.436;8.672;2023-06-14T08:57:10;2.60;;;1.75;;
76256;SDS011;65074;50.436;8.672;2023-06-14T08:59:37;2.85;;;1.80;;
76256;SDS011;65074;50.436;8.672;2023-06-14T09:02:08;2.47;;;1.90;;
76256;SDS011;65074;50.436;8.672;2023-06-14T09:07:05;3.35;;;1.92;;
76256;SDS011;65074;50.436;8.672;2023-06-14T09:09:31;3.35;;;1.98;;
76256;SDS011;65074;50.436;8.672;2023-06-14T09:11:56;2.23;;;1.87;;
76256;SDS011;65074;50.436;8.672;2023-06-14T09:14:23;3.87;;;2.07;;
76256;SDS011;65074;50.436;8.672;2023-06-14T09:16:52;3.03;;;2.00;;
76256;SDS011;65074;50.436;8.672;2023-06-14T09:19:23;2.60;;;2.22;;
76256;SDS011;65074;50.436;8.672;2023-06-14T09:21:49;4.05;;;1.98;;
76256;SDS011;65074;50.436;8.672;2023-06-14T09:24:14;2.80;;;2.28;;
76256;SDS011;65074;50.436;8.672;2023-06-14T09:26:40;4.55;;;2.72;;
76256;SDS011;65074;50.436;8.672;2023-06-14T09:29:05;2.42;;;2.22;;
76256;SDS011;65074;50.436;8.672;2023-06-14T09:31:31;5.20;;;2.28;;
76256;SDS011;65074;50.436;8.672;2023-06-14T09:33:57;5.95;;;2.40;;
76256;SDS011;65074;50.436;8.672;2023-06-14T09:36:23;4.05;;;2.25;;
76256;SDS011;65074;50.436;8.672;2023-06-14T09:38:53;2.90;;;2.28;;
76256;SDS011;65074;50.436;8.672;2023-06-14T09:41:19;5.22;;;2.30;;
76256;SDS011;65074;50.436;8.672;2023-06-14T09:43:46;2.83;;;2.10;;
76256;SDS011;65074;50.436;8.672;2023-06-14T09:46:12;4.70;;;2.15;;
76256;SDS011;65074;50.436;8.672;2023-06-14T09:48:38;3.63;;;2.33;;
76256;SDS011;65074;50.436;8.672;2023-06-14T09:51:07;3.72;;;2.28;;
76256;SDS011;65074;50.436;8.672;2023-06-14T09:53:33;4.10;;;2.60;;
76256;SDS011;65074;50.436;8.672;2023-06-14T09:56:01;4.93;;;2.25;;
76256;SDS011;65074;50.436;8.672;2023-06-14T09:58:26;4.40;;;2.23;;
76256;SDS011;65074;50.436;8.672;2023-06-14T10:00:53;4.78;;;2.20;;
76256;SDS011;65074;50.436;8.672;2023-06-14T10:03:21;3.30;;;2.13;;
76256;SDS011;65074;50.436;8.672;2023-06-14T10:05:47;3.83;;;2.25;;
76256;SDS011;65074;50.436;8.672;2023-06-14T10:08:14;4.90;;;2.63;;
76256;SDS011;65074;50.436;8.672;2023-06-14T10:10:40;2.65;;;1.80;;
76256;SDS011;65074;50.436;8.672;2023-06-14T10:13:06;3.65;;;2.40;;
76256;SDS011;65074;50.436;8.672;2023-06-14T10:15:41;2.47;;;2.13;;
76256;SDS011;65074;50.436;8.672;2023-06-14T10:18:14;3.13;;;2.00;;
76256;SDS011;65074;50.436;8.672;2023-06-14T10:23:32;4.47;;;2.30;;
76256;SDS011;65074;50.436;8.672;2023-06-14T10:25:58;3.58;;;2.03;;
76256;SDS011;65074;50.436;8.672;2023-06-14T10:28:25;2.40;;;2.00;;
76256;SDS011;65074;50.436;8.672;2023-06-14T10:33:29;2.40;;;1.85;;
76256;SDS011;65074;50.436;8.672;2023-06-14T10:39:06;2.75;;;2.13;;
76256;SDS011;65074;50.436;8.672;2023-06-14T10:41:33;2.08;;;1.88;;
76256;SDS011;65074;50.436;8.672;2023-06-14T10:46:40;2.33;;;1.88;;
76256;SDS011;65074;50.436;8.672;2023-06-14T10:49:05;3.63;;;2.00;;
76256;SDS011;65074;50.436;8.672;2023-06-14T10:51:45;2.08;;;1.80;;
76256;SDS011;65074;50.436;8.672;2023-06-14T10:54:15;4.72;;;3.65;;
76256;SDS011;65074;50.436;8.672;2023-06-14T10:56:47;3.33;;;1.88;;
76256;SDS011;65074;50.436;8.672;2023-06-14T10:59:13;2.53;;;1.98;;
76256;SDS011;65074;50.436;8.672;2023-06-14T11:01:41;3.38;;;2.13;;
76256;SDS011;65074;50.436;8.672;2023-06-14T11:04:08;2.53;;;1.83;;
76256;SDS011;65074;50.436;8.672;2023-06-14T11:06:48;9.75;;;2.83;;
76256;SDS011;65074;50.436;8.672;2023-06-14T11:09:36;2.75;;;2.00;;
76256;SDS011;65074;50.436;8.672;2023-06-14T11:12:07;3.22;;;2.00;;
76256;SDS011;65074;50.436;8.672;2023-06-14T11:14:35;4.18;;;2.30;;
76256;SDS011;65074;50.436;8.672;2023-06-14T11:17:00;2.03;;;1.83;;
76256;SDS011;65074;50.436;8.672;2023-06-14T11:19:25;2.30;;;1.90;;
76256;SDS011;65074;50.436;8.672;2023-06-14T11:21:53;3.22;;;1.90;;
76256;SDS011;65074;50.436;8.672;2023-06-14T11:24:19;2.10;;;1.80;;
76256;SDS011;65074;50.436;8.672;2023-06-14T11:26:46;2.58;;;1.88;;
76256;SDS011;65074;50.436;8.672;2023-06-14T11:29:11;2.40;;;1.92;;
76256;SDS011;65074;50.436;8.672;2023-06-14T11:31:37;2.65;;;2.22;;
76256;SDS011;65074;50.436;8.672;2023-06-14T11:34:02;4.97;;;2.70;;
76256;SDS011;65074;50.436;8.672;2023-06-14T11:36:29;4.13;;;2.10;;
76256;SDS011;65074;50.436;8.672;2023-06-14T11:38:58;4.00;;;2.15;;
76256;SDS011;65074;50.436;8.672;2023-06-14T11:41:24;2.22;;;2.00;;
76256;SDS011;65074;50.436;8.672;2023-06-14T11:43:52;4.47;;;2.05;;
76256;SDS011;65074;50.436;8.672;2023-06-14T11:46:17;3.30;;;2.42;;
76256;SDS011;65074;50.436;8.672;2023-06-14T11:48:47;2.30;;;2.10;;
76256;SDS011;65074;50.436;8.672;2023-06-14T11:51:12;1.97;;;1.80;;
76256;SDS011;65074;50.436;8.672;2023-06-14T11:53:37;2.55;;;2.20;;
76256;SDS011;65074;50.436;8.672;2023-06-14T11:56:03;3.20;;;1.98;;
76256;SDS011;65074;50.436;8.672;2023-06-14T11:58:29;3.50;;;2.30;;
76256;SDS011;65074;50.436;8.672;2023-06-14T12:00:54;2.08;;;1.95;;
76256;SDS011;65074;50.436;8.672;2023-06-14T12:03:23;3.63;;;2.00;;
76256;SDS011;65074;50.436;8.672;2023-06-14T12:05:50;3.40;;;1.60;;
76256;SDS011;65074;50.436;8.672;2023-06-14T12:08:16;2.33;;;2.13;;
76256;SDS011;65074;50.436;8.672;2023-06-14T12:10:42;2.63;;;2.00;;
76256;SDS011;65074;50.436;8.672;2023-06-14T12:13:10;2.38;;;1.88;;
76256;SDS011;65074;50.436;8.672;2023-06-14T12:15:36;2.13;;;1.92;;
76256;SDS011;65074;50.436;8.672;2023-06-14T12:18:04;4.60;;;1.90;;
76256;SDS011;65074;50.436;8.672;2023-06-14T12:20:31;3.95;;;1.90;;
76256;SDS011;65074;50.436;8.672;2023-06-14T12:23:00;2.10;;;1.90;;
76256;SDS011;65074;50.436;8.672;2023-06-14T12:25:34;3.60;;;2.22;;
76256;SDS011;65074;50.436;8.672;2023-06-14T12:28:04;5.65;;;3.88;;
76256;SDS011;65074;50.436;8.672;2023-06-14T12:30:29;5.97;;;2.65;;
76256;SDS011;65074;50.436;8.672;2023-06-14T12:32:55;2.07;;;1.87;;
76256;SDS011;65074;50.436;8.672;2023-06-14T12:35:20;6.35;;;2.13;;
76256;SDS011;65074;50.436;8.672;2023-06-14T12:37:46;4.90;;;2.13;;
76256;SDS011;65074;50.436;8.672;2023-06-14T12:40:12;2.85;;;2.50;;
76256;SDS011;65074;50.436;8.672;2023-06-14T12:42:37;3.67;;;2.28;;
76256;SDS011;65074;50.436;8.672;2023-06-14T12:45:02;2.22;;;2.05;;
76256;SDS011;65074;50.436;8.672;2023-06-14T12:47:28;2.42;;;2.20;;
76256;SDS011;65074;50.436;8.672;2023-06-14T12:49:53;4.93;;;2.23;;
76256;SDS011;65074;50.436;8.672;2023-06-14T12:52:18;3.03;;;2.53;;
76256;SDS011;65074;50.436;8.672;2023-06-14T12:54:43;3.13;;;2.20;;
76256;SDS011;65074;50.436;8.672;2023-06-14T12:57:09;2.10;;;1.90;;
76256;SDS011;65074;50.436;8.672;2023-06-14T12:59:35;7.60;;;2.25;;
76256;SDS011;65074;50.436;8.672;2023-06-14T13:02:13;2.40;;;2.20;;
76256;SDS011;65074;50.436;8.672;2023-06-14T13:04:38;4.22;;;2.20;;
76256;SDS011;65074;50.436;8.672;2023-06-14T13:07:04;3.20;;;2.30;;
76256;SDS011;65074;50.436;8.672;2023-06-14T13:09:29;2.88;;;2.20;;
76256;SDS011;65074;50.436;8.672;2023-06-14T13:11:54;3.87;;;2.30;;
76256;SDS011;65074;50.436;8.672;2023-06-14T13:14:20;2.37;;;2.17;;
76256;SDS011;65074;50.436;8.672;2023-06-14T13:16:45;2.73;;;1.67;;
76256;SDS011;65074;50.436;8.672;2023-06-14T13:19:10;2.40;;;2.20;;
76256;SDS011;65074;50.436;8.672;2023-06-14T13:21:36;3.40;;;2.45;;
76256;SDS011;65074;50.436;8.672;2023-06-14T13:24:01;2.77;;;2.23;;
76256;SDS011;65074;50.436;8.672;2023-06-14T13:26:26;2.60;;;2.20;;
76256;SDS011;65074;50.436;8.672;2023-06-14T13:28:51;2.72;;;2.53;;
76256;SDS011;65074;50.436;8.672;2023-06-14T13:31:17;4.13;;;2.53;;
76256;SDS011;65074;50.436;8.672;2023-06-14T13:33:42;4.60;;;2.37;;
76256;SDS011;65074;50.436;8.672;2023-06-14T13:36:07;2.77;;;2.37;;
76256;SDS011;65074;50.436;8.672;2023-06-14T13:38:33;4.83;;;2.00;;
76256;SDS011;65074;50.436;8.672;2023-06-14T13:40:58;2.93;;;2.30;;
76256;SDS011;65074;50.436;8.672;2023-06-14T13:43:23;2.40;;;2.20;;
76256;SDS011;65074;50.436;8.672;2023-06-14T13:45:48;4.40;;;2.20;;
76256;SDS011;65074;50.436;8.672;2023-06-14T13:48:13;5.43;;;2.50;;
76256;SDS011;65074;50.436;8.672;2023-06-14T13:50:39;5.25;;;2.10;;
76256;SDS011;65074;50.436;8.672;2023-06-14T13:53:05;2.40;;;2.13;;
76256;SDS011;65074;50.436;8.672;2023-06-14T13:55:30;3.00;;;2.07;;
76256;SDS011;65074;50.436;8.672;2023-06-14T13:57:55;5.27;;;2.47;;
76256;SDS011;65074;50.436;8.672;2023-06-14T14:00:21;2.70;;;2.20;;
76256;SDS011;65074;50.436;8.672;2023-06-14T14:02:47;2.45;;;2.08;;
76256;SDS011;65074;50.436;8.672;2023-06-14T14:05:12;2.40;;;1.97;;
76256;SDS011;65074;50.436;8.672;2023-06-14T14:07:38;2.58;;;2.20;;
76256;SDS011;65074;50.436;8.672;2023-06-14T14:10:04;4.32;;;2.35;;
76256;SDS011;65074;50.436;8.672;2023-06-14T14:12:30;3.50;;;2.22;;
76256;SDS011;65074;50.436;8.672;2023-06-14T14:14:55;2.70;;;2.40;;
76256;SDS011;65074;50.436;8.672;2023-06-14T14:17:21;4.95;;;2.38;;
76256;SDS011;65074;50.436;8.672;2023-06-14T14:19:46;3.67;;;2.30;;
76256;SDS011;65074;50.436;8.672;2023-06-14T14:22:11;3.08;;;2.30;;
76256;SDS011;65074;50.436;8.672;2023-06-14T14:24:37;4.47;;;2.17;;
76256;SDS011;65074;50.436;8.672;2023-06-14T14:27:02;8.97;;;2.33;;
76256;SDS011;65074;50.436;8.672;2023-06-14T14:29:27;2.67;;;2.45;;
76256;SDS011;65074;50.436;8.672;2023-06-14T14:31:55;3.88;;;1.95;;
76256;SDS011;65074;50.436;8.672;2023-06-14T14:34:21;3.15;;;2.28;;
76256;SDS011;65074;50.436;8.672;2023-06-14T14:36:47;3.08;;;2.10;;
76256;SDS011;65074;50.436;8.672;2023-06-14T14:39:12;3.17;;;2.20;;
76256;SDS011;65074;50.436;8.672;2023-06-14T14:41:37;2.60;;;2.40;;
76256;SDS011;65074;50.436;8.672;2023-06-14T14:44:03;2.15;;;1.70;;
76256;SDS011;65074;50.436;8.672;2023-06-14T14:46:29;2.75;;;2.45;;
76256;SDS011;65074;50.436;8.672;2023-06-14T14:48:54;2.70;;;2.50;;
76256;SDS011;65074;50.436;8.672;2023-06-14T14:51:19;3.35;;;2.05;;
76256;SDS011;65074;50.436;8.672;2023-06-14T14:53:45;3.50;;;2.37;;
76256;SDS011;65074;50.436;8.672;2023-06-14T14:56:10;2.70;;;2.40;;
76256;SDS011;65074;50.436;8.672;2023-06-14T14:58:37;4.85;;;2.40;;
76256;SDS011;65074;50.436;8.672;2023-06-14T15:01:02;3.85;;;2.55;;
76256;SDS011;65074;50.436;8.672;2023-06-14T15:03:27;3.40;;;2.43;;